Flight Track Log - Related Links

Times and Time Zones

All times are in EDT time to prevent confusion due to time zone crossing. See the FLG3616 flight status page for this flight to view local times or setup timezone preferences in your user account.

Time Position Orientation Groundspeed Altitude Reporting Facility
EDT Latitude Longitude Course Direction KTS MPH feet Rate Location/Type
Thu 05:31:36 PM 42.2608 -85.5511 North 124 143 2,200  Level Chicago Center
Thu 05:32:38 PM 42.3172 -85.5442 North 198 228 4,100 2,032 Climbing Chicago Center
Thu 05:33:40 PM 42.3889 -85.5369 North 248 285 6,400 2,468 Climbing Chicago Center
Thu 05:34:42 PM 42.4644 -85.5278 North 268 308 9,200 2,177 Climbing Chicago Center
Thu 05:35:44 PM 42.5458 -85.5200 North 287 330 10,900 2,081 Climbing Chicago Center
Thu 05:36:46 PM 42.6567 -85.5067 North 332 382 13,500 1,984 Climbing Chicago Center
Thu 05:37:48 PM 42.7361 -85.4531 26° Northeast 345 397 15,000 726 Climbing Chicago Center
Thu 05:38:50 PM 42.7517 -85.3150 81° East 373 429 15,000  Level Chicago Center
Thu 05:39:53 PM 42.7603 -85.1794 85° East 363 418 15,000  Level Chicago Center
Thu 05:40:55 PM 42.7681 -85.0447 85° East 360 414 15,000 -145 Level Chicago Center
Thu 05:41:57 PM 42.7775 -84.8797 85° East 365 420 14,700 -629 Descending Chicago Center
Thu 05:42:59 PM 42.7858 -84.7456 85° East 358 412 13,700 -968 Descending Chicago Center
Thu 05:44:01 PM 42.7933 -84.6144 85° East 351 404 12,700 -823 Descending Chicago Center
Thu 05:45:03 PM 42.8000 -84.4731 86° East 369 425 12,000 -404 Descending Chicago Center
Thu 05:45:45 PM 42.8069 -84.3558 85° East 367 422 12,000  Level Cleveland Center
Thu 05:46:45 PM 42.8111 -84.2286 87° East 367 422 12,000  Level Cleveland Center
Thu 05:47:45 PM 42.8175 -84.0875 86° East 372 428 12,000  Level Cleveland Center
Thu 05:48:45 PM 42.8239 -83.9464 86° East 372 428 12,000  Level Cleveland Center
Thu 05:49:45 PM 42.8297 -83.8108 87° East 366 421 12,000 -150 Level Cleveland Center
Thu 05:50:45 PM 42.7869 -83.7008 118° Southeast 302 348 11,700 -700 Descending Cleveland Center
Thu 05:51:45 PM 42.7089 -83.6575 158° South 275 316 10,600 -950 Descending Cleveland Center
Thu 05:52:45 PM 42.6458 -83.6008 147° Southeast 275 316 9,800 700 Descending Cleveland Center
Thu 05:53:45 PM 42.6017 -83.5281 129° Southeast 262 302 12,000 -1,150 Climbing Cleveland Center
Thu 05:54:45 PM 42.5556 -83.4556 131° Southeast 256 295 7,500 -2,510 Descending Cleveland Center
Thu 05:56:18 PM 42.4958 -83.3431 126° Southeast 237 273 5,600 -1,135 Descending Cleveland Center
Thu 05:57:13 PM 42.4706 -83.2686 115° Southeast 231 266 4,700 -787 Descending Cleveland Center
Thu 05:58:20 PM 42.4300 -83.2164 136° Southeast 205 236 4,000 -328 Descending Cleveland Center
Thu 05:59:21 PM 42.3736 -83.2194 182° South 200 230 4,000 -436 Level Cleveland Center
Thu 06:00:10 PM 42.3356 -83.2517 212° Southwest 192 221 3,200 -983 Descending Cleveland Center
Thu 06:01:17 PM 42.2825 -83.2886 207° Southwest 183 211 2,100 -891 Descending Cleveland Center
Thu 06:02:18 PM 42.2464 -83.3181 211° Southwest 141 162 1,300 -787 Descending Cleveland Center

Login

Don't have an account? Register now (free) for customized features, flight alerts, and more!